Time;durP1;ratioP1;P1;durP2;ratioP2;P2;SDS_P1;SDS_P2;PMS_P1;PMS_P2;Temp;Humidity;BMP_temperature;BMP_pressure;BME280_temperature;BME280_humidity;BME280_pressure;Samples;Min_cycle;Max_cycle;Signal;HPM_P1;HPM_P2
2021/11/11 00:01:40;;;;;;;;;;;;;;;16.91;48.53;102458.34;5042719;28;19922;-92
2021/11/11 00:04:09;;;;;;;;;;;;;;;17.89;46.42;102452.53;5041881;28;20445;-92
2021/11/11 00:06:35;;;;;;;;;;;;;;;17.56;46.73;102450.53;5042736;28;19913;-91
2021/11/11 00:09:00;;;;;;;;;;;;;;;17.43;47.18;102454.88;5042518;28;19918;-93
2021/11/11 00:11:26;;;;;;;;;;;;;;;17.98;46.02;102451.13;5041936;28;19940;-93
2021/11/11 00:13:51;;;;;;;;;;;;;;;17.22;47.59;102457.72;5042445;28;19917;-91
2021/11/11 00:16:16;;;;;;;;;;;;;;;17.54;46.95;102449.72;5042853;28;20374;-92
2021/11/11 00:18:42;;;;;;;;;;;;;;;17.59;46.84;102452.22;5042557;28;19937;-90
2021/11/11 00:21:08;;;;;;;;;;;;;;;17.85;46.37;102446.28;5042320;28;19929;-91
2021/11/11 00:23:33;;;;;;;;;;;;;;;17.50;47.12;102449.00;5042378;28;19924;-93
2021/11/11 00:25:58;;;;;;;;;;;;;;;17.69;46.85;102448.94;5042075;28;20088;-90
2021/11/11 00:28:24;;;;;;;;;;;;;;;17.58;47.13;102445.88;5041729;28;19989;-92
2021/11/11 00:30:49;;;;;;;;;;;;;;;17.34;47.89;102453.47;5042476;28;19901;-93
2021/11/11 00:33:15;;;;;;;;;;;;;;;17.42;47.32;102451.25;5043297;28;19980;-91
2021/11/11 00:35:40;;;;;;;;;;;;;;;17.21;48.16;102458.69;5044844;28;19917;-91
2021/11/11 00:38:05;;;;;;;;;;;;;;;17.35;47.67;102449.78;5047891;28;19918;-89
2021/11/11 00:40:31;;;;;;;;;;;;;;;18.22;45.71;102455.31;5048682;28;19921;-91
2021/11/11 00:43:00;;;;;;;;;;;;;;;18.36;44.91;102460.03;5045026;28;19921;-90
2021/11/11 00:45:27;;;;;;;;;;;;;;;18.66;44.39;102453.81;5045055;28;19924;-92
2021/11/11 00:47:54;;;;;;;;;;;;;;;18.31;44.82;102458.50;5043791;28;19929;-92
2021/11/11 00:50:20;;;;;;;;;;;;;;;18.49;44.15;102453.84;5025845;28;19932;-91
2021/11/11 00:52:46;;;;;;;;;;;;;;;17.71;45.98;102457.94;5040923;28;20363;-91
2021/11/11 00:55:11;;;;;;;;;;;;;;;17.85;45.90;102451.75;5040367;28;19968;-89
2021/11/11 00:57:37;;;;;;;;;;;;;;;18.23;45.00;102458.91;5040101;28;19953;-93
2021/11/11 01:00:04;;;;;;;;;;;;;;;18.41;44.61;102457.03;5040581;28;20367;-91
2021/11/11 01:02:30;;;;;;;;;;;;;;;18.97;43.42;102454.81;5024202;28;19921;-91
2021/11/11 01:04:55;;;;;;;;;;;;;;;18.48;44.23;102458.47;5041445;28;19918;-91
2021/11/11 01:07:21;;;;;;;;;;;;;;;18.20;45.34;102459.09;5044658;28;19921;-90
2021/11/11 01:09:47;;;;;;;;;;;;;;;18.65;44.32;102457.50;5044528;28;19967;-91
2021/11/11 01:12:12;;;;;;;;;;;;;;;18.75;43.90;102456.03;5044764;28;19976;-92
2021/11/11 01:14:37;;;;;;;;;;;;;;;19.45;42.45;102452.91;5043890;28;19928;-91
2021/11/11 01:17:12;;;;;;;;;;;;;;;19.38;42.78;102446.03;5044785;28;19972;-91
2021/11/11 01:19:38;;;;;;;;;;;;;;;18.76;43.87;102451.41;5044365;28;19917;-92
2021/11/11 01:22:04;;;;;;;;;;;;;;;18.90;43.93;102453.41;5043214;28;19991;-92
2021/11/11 01:24:29;;;;;;;;;;;;;;;18.75;44.55;102453.28;5027777;28;19937;-92
2021/11/11 01:26:54;;;;;;;;;;;;;;;18.92;43.83;102452.34;5043906;28;19957;-91
2021/11/11 01:29:20;;;;;;;;;;;;;;;18.70;44.43;102449.91;5044048;28;20033;-91
2021/11/11 01:31:45;;;;;;;;;;;;;;;18.93;44.18;102448.66;5044114;28;19921;-90
2021/11/11 01:34:11;;;;;;;;;;;;;;;18.34;45.25;102444.63;5044980;28;19972;-90
2021/11/11 01:36:36;;;;;;;;;;;;;;;17.60;47.10;102440.31;5045011;28;19917;-88
2021/11/11 01:39:03;;;;;;;;;;;;;;;17.89;46.72;102436.97;5045288;28;19924;-92
2021/11/11 01:41:28;;;;;;;;;;;;;;;17.61;46.71;102433.88;5044894;28;19917;-88
2021/11/11 01:43:54;;;;;;;;;;;;;;;17.63;46.38;102421.00;5041502;28;19917;-90
2021/11/11 01:46:19;;;;;;;;;;;;;;;17.54;47.00;102426.00;5042322;28;19917;-90
2021/11/11 01:48:44;;;;;;;;;;;;;;;17.62;46.54;102420.13;5040494;28;19924;-90
2021/11/11 01:51:10;;;;;;;;;;;;;;;17.58;47.20;102423.09;5041988;28;19917;-91
2021/11/11 01:53:35;;;;;;;;;;;;;;;18.06;45.53;102416.00;5040681;28;19925;-90
2021/11/11 01:56:00;;;;;;;;;;;;;;;18.37;45.20;102412.47;5041468;28;20016;-92
2021/11/11 01:58:26;;;;;;;;;;;;;;;18.09;45.42;102410.38;5042955;28;19918;-90
2021/11/11 02:00:53;;;;;;;;;;;;;;;17.84;45.74;102414.38;5041733;28;19921;-90
2021/11/11 02:03:18;;;;;;;;;;;;;;;17.79;46.03;102419.22;5040808;28;19928;-89
2021/11/11 02:05:45;;;;;;;;;;;;;;;17.23;47.35;102418.47;5042018;28;20293;-89
2021/11/11 02:08:11;;;;;;;;;;;;;;;17.32;47.26;102407.06;5041484;28;19917;-90
2021/11/11 02:10:40;;;;;;;;;;;;;;;16.99;48.58;102413.25;5040861;28;19917;-89
2021/11/11 02:13:06;;;;;;;;;;;;;;;16.93;48.36;102408.09;5039502;28;19925;-88
2021/11/11 02:15:31;;;;;;;;;;;;;;;17.22;47.59;102394.81;5040900;28;19926;-90
2021/11/11 02:17:57;;;;;;;;;;;;;;;17.63;47.05;102401.84;5039671;28;19924;-92
2021/11/11 02:20:30;;;;;;;;;;;;;;;18.14;45.21;102401.91;5040521;28;19944;-90
2021/11/11 02:22:56;;;;;;;;;;;;;;;18.19;44.71;102397.03;5040507;28;19918;-90
2021/11/11 02:25:23;;;;;;;;;;;;;;;18.15;45.19;102406.41;5041459;28;19921;-91
2021/11/11 02:27:49;;;;;;;;;;;;;;;18.45;44.62;102405.66;5040756;28;19922;-90
2021/11/11 02:30:15;;;;;;;;;;;;;;;17.57;46.66;102413.09;5040932;28;19928;-92
2021/11/11 02:32:41;;;;;;;;;;;;;;;17.81;45.66;102403.59;5040954;28;19937;-93
2021/11/11 02:35:08;;;;;;;;;;;;;;;17.48;46.91;102401.69;5041488;28;19917;-92
2021/11/11 02:37:33;;;;;;;;;;;;;;;17.50;46.65;102399.75;5041365;28;19924;-90
2021/11/11 02:40:00;;;;;;;;;;;;;;;17.93;45.63;102402.09;5040931;28;19914;-91
2021/11/11 02:42:26;;;;;;;;;;;;;;;17.81;45.83;102400.84;5040494;28;19939;-91
2021/11/11 02:44:56;;;;;;;;;;;;;;;17.39;46.58;102399.41;5040117;28;20445;-90
2021/11/11 02:47:21;;;;;;;;;;;;;;;17.08;47.77;102394.63;5040903;28;19925;-90
2021/11/11 02:49:46;;;;;;;;;;;;;;;17.28;47.40;102389.03;5052137;28;20371;-91
2021/11/11 02:52:11;;;;;;;;;;;;;;;17.14;47.38;102397.94;5053638;28;19914;-93
2021/11/11 02:54:38;;;;;;;;;;;;;;;17.81;45.95;102392.63;5048439;28;19905;-90
2021/11/11 02:57:16;;;;;;;;;;;;;;;16.61;48.79;102399.59;5043441;28;19918;-89
2021/11/11 02:59:42;;;;;;;;;;;;;;;17.06;48.22;102399.28;5041616;28;19929;-91
2021/11/11 03:02:18;;;;;;;;;;;;;;;16.95;48.39;102400.72;5039834;28;19917;-91
2021/11/11 03:04:43;;;;;;;;;;;;;;;17.23;47.68;102396.59;5038509;28;19917;-92
2021/11/11 03:07:09;;;;;;;;;;;;;;;16.73;48.79;102408.19;5038618;28;19984;-90
2021/11/11 03:09:34;;;;;;;;;;;;;;;17.08;48.27;102405.56;5022198;28;19922;-91
2021/11/11 03:12:00;;;;;;;;;;;;;;;17.42;47.28;102398.38;5039670;28;19922;-91
2021/11/11 03:14:25;;;;;;;;;;;;;;;17.57;46.92;102400.31;5039276;28;19925;-90
2021/11/11 03:16:50;;;;;;;;;;;;;;;17.23;47.47;102404.78;5038734;28;19944;-90
2021/11/11 03:19:15;;;;;;;;;;;;;;;17.10;47.87;102409.09;5038287;28;19951;-89
2021/11/11 03:21:44;;;;;;;;;;;;;;;17.21;47.70;102403.09;5037894;28;19926;-90
2021/11/11 03:24:09;;;;;;;;;;;;;;;17.94;45.75;102403.88;5021069;28;19921;-89
2021/11/11 03:26:37;;;;;;;;;;;;;;;17.79;46.14;102393.72;5023183;28;20004;-90
2021/11/11 03:29:02;;;;;;;;;;;;;;;17.48;46.76;102398.94;5021021;28;20012;-92
2021/11/11 03:31:27;;;;;;;;;;;;;;;17.40;47.75;102403.91;5022875;28;19952;-91
2021/11/11 03:33:53;;;;;;;;;;;;;;;18.06;45.65;102397.72;5039583;28;20036;-91
2021/11/11 03:36:18;;;;;;;;;;;;;;;17.61;46.70;102404.66;5040220;28;19906;-90
2021/11/11 03:38:44;;;;;;;;;;;;;;;17.60;46.81;102402.88;5040711;28;19917;-91
2021/11/11 03:41:09;;;;;;;;;;;;;;;17.47;47.41;102409.97;5039732;28;19917;-91
2021/11/11 03:43:34;;;;;;;;;;;;;;;18.03;45.94;102400.63;5039345;28;19972;-91
2021/11/11 03:46:00;;;;;;;;;;;;;;;17.92;45.63;102404.91;5040942;28;19917;-90
2021/11/11 03:48:25;;;;;;;;;;;;;;;18.37;44.85;102401.53;5040468;28;20016;-92
2021/11/11 03:50:50;;;;;;;;;;;;;;;18.80;43.88;102400.06;5040261;28;19929;-90
2021/11/11 03:53:16;;;;;;;;;;;;;;;18.33;44.95;102405.38;5039808;28;19908;-90
2021/11/11 03:55:41;;;;;;;;;;;;;;;17.61;46.26;102404.66;5040875;28;19975;-93
2021/11/11 03:58:07;;;;;;;;;;;;;;;18.07;45.96;102398.59;5040180;28;19917;-91
2021/11/11 04:00:32;;;;;;;;;;;;;;;18.21;45.70;102400.59;5041316;28;19979;-91
2021/11/11 04:02:57;;;;;;;;;;;;;;;17.27;46.95;102409.16;5040388;28;19944;-91
2021/11/11 04:05:23;;;;;;;;;;;;;;;17.91;45.89;102403.16;5040766;28;19920;-93
2021/11/11 04:07:53;;;;;;;;;;;;;;;17.66;46.43;102412.63;5040010;28;19921;-91
2021/11/11 04:10:19;;;;;;;;;;;;;;;17.27;47.73;102414.63;5022769;28;19918;-89
2021/11/11 04:12:45;;;;;;;;;;;;;;;16.95;48.61;102419.88;5040323;28;19918;-90
2021/11/11 04:15:12;;;;;;;;;;;;;;;17.42;47.25;102417.53;5039922;28;19918;-89
2021/11/11 04:17:37;;;;;;;;;;;;;;;17.29;47.82;102431.81;5040021;28;19918;-89
2021/11/11 04:20:03;;;;;;;;;;;;;;;17.54;47.18;102425.09;5040915;28;19934;-90
2021/11/11 04:22:28;;;;;;;;;;;;;;;16.81;48.67;102436.00;5040786;28;19935;-89
2021/11/11 04:24:56;;;;;;;;;;;;;;;17.26;47.80;102428.38;5041041;28;19918;-91
2021/11/11 04:27:26;;;;;;;;;;;;;;;17.33;47.45;102427.97;5041440;28;19918;-90
2021/11/11 04:32:36;;;;;;;;;;;;;;;17.47;47.57;102420.94;5026109;28;19984;-92
2021/11/11 04:35:01;;;;;;;;;;;;;;;17.66;46.92;102419.00;5041746;28;19915;-92
2021/11/11 04:37:56;;;;;;;;;;;;;;;17.16;47.98;102417.00;5042048;28;19921;-88
2021/11/11 04:45:53;;;;;;;;;;;;;;;17.90;46.39;102410.47;5030287;28;19925;-89
2021/11/11 05:01:55;;;;;;;;;;;;;;;18.12;45.60;102412.06;5030415;28;19925;-87
2021/11/11 05:04:21;;;;;;;;;;;;;;;17.93;46.21;102410.28;5045021;28;20375;-90
2021/11/11 05:06:49;;;;;;;;;;;;;;;17.40;47.40;102412.13;5043750;28;19923;-89
2021/11/11 05:09:14;;;;;;;;;;;;;;;18.05;46.10;102417.84;5043866;28;19917;-91
2021/11/11 05:11:39;;;;;;;;;;;;;;;17.46;47.69;102419.13;5043864;28;19917;-89
2021/11/11 05:14:04;;;;;;;;;;;;;;;17.46;47.23;102421.88;5043852;28;20207;-91
2021/11/11 05:16:30;;;;;;;;;;;;;;;17.82;46.91;102423.66;5044623;28;20474;-90
2021/11/11 05:18:55;;;;;;;;;;;;;;;17.75;46.80;102422.22;5045144;28;19957;-89
2021/11/11 05:21:20;;;;;;;;;;;;;;;18.37;45.51;102423.44;5045044;28;20484;-89
2021/11/11 05:23:45;;;;;;;;;;;;;;;17.44;47.51;102426.56;5045535;28;19917;-88
2021/11/11 05:26:11;;;;;;;;;;;;;;;17.53;47.08;102421.47;5044220;28;19922;-90
2021/11/11 05:28:37;;;;;;;;;;;;;;;17.59;47.24;102430.31;5043196;28;19924;-91
2021/11/11 05:31:02;;;;;;;;;;;;;;;17.43;47.92;102416.56;5044311;28;19921;-91
2021/11/11 05:33:27;;;;;;;;;;;;;;;16.90;48.86;102424.66;5043855;28;19917;-90
2021/11/11 05:35:53;;;;;;;;;;;;;;;17.35;48.39;102420.56;5042546;28;19922;-89
2021/11/11 05:38:18;;;;;;;;;;;;;;;17.18;48.34;102418.69;5042208;28;20528;-87
2021/11/11 05:40:43;;;;;;;;;;;;;;;17.18;48.32;102420.53;5025143;28;20008;-88
2021/11/11 05:43:09;;;;;;;;;;;;;;;17.18;48.37;102426.00;5041336;28;19937;-86
2021/11/11 05:45:34;;;;;;;;;;;;;;;17.83;46.94;102429.06;5040943;28;19909;-87
2021/11/11 05:48:02;;;;;;;;;;;;;;;18.53;45.33;102417.09;5041599;28;19952;-89
2021/11/11 05:50:27;;;;;;;;;;;;;;;18.44;45.02;102428.56;5041393;28;20412;-87
2021/11/11 05:52:53;;;;;;;;;;;;;;;18.17;45.66;102418.16;5040441;28;19917;-88
2021/11/11 05:55:18;;;;;;;;;;;;;;;17.76;46.93;102416.66;5042873;28;19929;-90
2021/11/11 05:57:45;;;;;;;;;;;;;;;17.77;47.10;102423.00;5042610;28;19917;-88
2021/11/11 06:00:15;;;;;;;;;;;;;;;17.99;46.53;102418.19;5044212;28;19918;-90
2021/11/11 06:02:43;;;;;;;;;;;;;;;18.02;46.32;102423.50;5054914;28;19928;-91
2021/11/11 06:05:08;;;;;;;;;;;;;;;18.23;45.88;102421.44;5054061;28;19944;-89
2021/11/11 06:07:34;;;;;;;;;;;;;;;18.35;45.72;102422.63;5046015;28;19956;-88
2021/11/11 06:09:59;;;;;;;;;;;;;;;17.63;47.51;102421.00;5045228;28;19917;-90
2021/11/11 06:12:24;;;;;;;;;;;;;;;17.85;47.12;102416.16;5027949;28;19924;-90
2021/11/11 06:14:49;;;;;;;;;;;;;;;17.39;47.42;102425.88;5044126;28;19945;-91
2021/11/11 06:17:15;;;;;;;;;;;;;;;18.02;46.86;102426.22;5042989;28;19925;-91
2021/11/11 06:19:44;;;;;;;;;;;;;;;18.05;46.69;102426.06;5038701;28;20310;-90
2021/11/11 06:22:10;;;;;;;;;;;;;;;17.96;46.31;102426.56;5037105;28;19925;-89
2021/11/11 06:24:35;;;;;;;;;;;;;;;18.10;46.24;102425.84;5037699;28;19952;-87
2021/11/11 06:27:01;;;;;;;;;;;;;;;18.35;46.04;102436.31;5021908;28;20211;-89
2021/11/11 06:29:26;;;;;;;;;;;;;;;18.19;46.09;102429.91;5037350;28;19918;-89
2021/11/11 06:31:58;;;;;;;;;;;;;;;18.15;46.41;102444.75;5021909;28;20377;-91
2021/11/11 06:34:23;;;;;;;;;;;;;;;18.05;46.58;102438.88;5037430;28;19925;-91
2021/11/11 06:36:49;;;;;;;;;;;;;;;17.67;47.54;102445.38;5036661;28;19918;-88
2021/11/11 06:39:14;;;;;;;;;;;;;;;17.42;48.93;102450.34;5036866;28;20405;-89
2021/11/11 06:41:40;;;;;;;;;;;;;;;17.56;48.26;102453.28;5035977;28;19981;-88
2021/11/11 06:44:05;;;;;;;;;;;;;;;17.34;48.92;102456.22;5035663;28;19921;-90
2021/11/11 06:46:30;;;;;;;;;;;;;;;17.25;49.19;102457.56;5034894;28;19977;-87
2021/11/11 06:48:56;;;;;;;;;;;;;;;17.40;48.47;102457.75;5035468;28;19964;-91
2021/11/11 06:51:21;;;;;;;;;;;;;;;17.57;48.46;102455.03;5036747;28;19926;-87
2021/11/11 06:53:46;;;;;;;;;;;;;;;16.99;49.93;102467.06;5034484;28;19928;-87
2021/11/11 06:56:12;;;;;;;;;;;;;;;17.68;47.90;102468.19;5035807;28;19972;-90
2021/11/11 06:58:39;;;;;;;;;;;;;;;18.09;47.38;102465.16;5035563;28;19968;-88
2021/11/11 07:01:06;;;;;;;;;;;;;;;17.98;47.14;102470.28;5035772;28;19963;-87
2021/11/11 07:03:32;;;;;;;;;;;;;;;17.96;47.26;102473.13;5035358;28;19928;-91
2021/11/11 07:05:58;;;;;;;;;;;;;;;18.47;46.19;102475.00;5036922;28;20004;-86
2021/11/11 07:08:27;;;;;;;;;;;;;;;18.49;46.43;102473.03;5020302;28;19917;-86
2021/11/11 07:10:53;;;;;;;;;;;;;;;18.62;46.26;102476.00;5034540;28;20012;-85
2021/11/11 07:13:19;;;;;;;;;;;;;;;18.17;47.42;102475.69;5019791;28;19921;-87
2021/11/11 07:15:45;;;;;;;;;;;;;;;18.34;47.68;102481.16;5035842;28;19993;-89
2021/11/11 07:18:13;;;;;;;;;;;;;;;18.75;45.98;102483.44;5020324;28;19961;-88
2021/11/11 07:20:40;;;;;;;;;;;;;;;18.78;46.18;102475.03;5019680;28;19929;-87
2021/11/11 07:23:06;;;;;;;;;;;;;;;19.02;45.75;102480.16;5034156;28;20008;-87
2021/11/11 07:25:33;;;;;;;;;;;;;;;18.72;46.33;102478.13;5016696;28;22183;-89
2021/11/11 07:27:59;;;;;;;;;;;;;;;19.27;45.21;102479.59;5033880;28;20355;-90
2021/11/11 07:30:24;;;;;;;;;;;;;;;19.54;44.56;102481.69;5033261;28;19917;-87
2021/11/11 07:32:50;;;;;;;;;;;;;;;19.90;43.72;102488.72;5034236;28;19918;-89
2021/11/11 07:35:16;;;;;;;;;;;;;;;19.12;45.24;102494.22;5035140;28;19917;-87
2021/11/11 07:37:42;;;;;;;;;;;;;;;18.98;45.61;102495.00;5034713;28;20302;-88
2021/11/11 07:40:09;;;;;;;;;;;;;;;18.68;46.49;102503.94;5034141;28;20338;-87
2021/11/11 07:42:36;;;;;;;;;;;;;;;18.75;46.18;102497.16;5019830;28;20005;-89
2021/11/11 07:45:01;;;;;;;;;;;;;;;19.05;45.70;102495.53;5034897;28;19921;-88
2021/11/11 07:47:27;;;;;;;;;;;;;;;19.81;44.09;102498.41;5034803;28;19968;-87
2021/11/11 07:49:57;;;;;;;;;;;;;;;19.92;43.46;102502.38;5035257;28;19972;-89
2021/11/11 07:52:26;;;;;;;;;;;;;;;19.88;43.79;102501.66;5035413;28;20286;-89
2021/11/11 07:54:58;;;;;;;;;;;;;;;19.79;43.82;102505.84;5033081;28;20194;-87
2021/11/11 07:57:26;;;;;;;;;;;;;;;19.34;45.05;102504.84;5035464;28;19902;-88
2021/11/11 07:59:51;;;;;;;;;;;;;;;19.06;46.07;102498.19;5034958;28;19918;-86
2021/11/11 08:02:17;;;;;;;;;;;;;;;19.24;45.67;102495.38;5017778;28;19917;-86
2021/11/11 08:04:43;;;;;;;;;;;;;;;18.92;46.57;102495.34;5018448;28;19921;-84
2021/11/11 08:07:08;;;;;;;;;;;;;;;19.30;46.24;102503.22;5031459;28;19980;-88
2021/11/11 08:09:33;;;;;;;;;;;;;;;19.19;46.80;102497.47;4999302;28;20364;-86
2021/11/11 08:11:59;;;;;;;;;;;;;;;19.02;47.16;102496.59;5000910;28;20359;-87
2021/11/11 08:14:25;;;;;;;;;;;;;;;18.19;49.43;102493.81;5010974;28;20013;-87
2021/11/11 08:16:51;;;;;;;;;;;;;;;18.81;48.20;102486.81;5024251;28;19961;-89
2021/11/11 08:19:16;;;;;;;;;;;;;;;18.82;47.75;102488.59;5022342;28;19922;-86
2021/11/11 08:21:41;;;;;;;;;;;;;;;18.42;49.00;102486.22;5020992;28;19933;-85
2021/11/11 08:24:07;;;;;;;;;;;;;;;18.65;48.77;102486.78;5021810;28;19921;-85
2021/11/11 08:26:32;;;;;;;;;;;;;;;18.66;48.83;102489.44;5024326;28;20345;-87
2021/11/11 08:28:57;;;;;;;;;;;;;;;19.08;47.91;102479.78;5038253;28;20008;-87
2021/11/11 08:31:22;;;;;;;;;;;;;;;18.09;49.75;102484.31;5037090;28;19924;-86
2021/11/11 08:33:48;;;;;;;;;;;;;;;18.81;48.43;102475.84;5016503;28;20394;-84
2021/11/11 08:36:13;;;;;;;;;;;;;;;18.51;49.23;102484.78;5031413;28;20282;-87
2021/11/11 08:38:38;;;;;;;;;;;;;;;18.58;48.97;102489.88;5020708;28;19971;-87
2021/11/11 08:41:04;;;;;;;;;;;;;;;18.60;48.92;102482.44;5021383;28;19970;-86
2021/11/11 08:43:29;;;;;;;;;;;;;;;17.91;51.17;102490.78;5010955;28;20295;-86
2021/11/11 08:45:54;;;;;;;;;;;;;;;18.52;49.44;102484.72;5008923;28;19932;-87
2021/11/11 08:48:20;;;;;;;;;;;;;;;18.82;49.18;102492.19;5030674;28;19929;-87
2021/11/11 08:50:46;;;;;;;;;;;;;;;18.94;48.65;102488.78;5012495;28;19922;-86
2021/11/11 08:53:12;;;;;;;;;;;;;;;18.78;48.53;102480.53;5021391;28;19929;-88
2021/11/11 08:55:38;;;;;;;;;;;;;;;18.89;48.90;102487.31;5029548;28;19917;-85
2021/11/11 08:58:04;;;;;;;;;;;;;;;19.27;48.33;102486.94;5027132;28;20009;-88
2021/11/11 09:00:32;;;;;;;;;;;;;;;19.81;46.59;102494.78;5012227;28;19953;-87
2021/11/11 09:02:58;;;;;;;;;;;;;;;18.54;49.60;102496.50;5025636;28;20012;-88
2021/11/11 09:05:24;;;;;;;;;;;;;;;18.32;50.76;102495.91;5028750;28;19927;-87
2021/11/11 09:07:50;;;;;;;;;;;;;;;18.28;51.21;102492.41;5008811;28;19918;-89
2021/11/11 09:10:18;;;;;;;;;;;;;;;18.42;50.55;102495.31;5028374;28;20295;-86
2021/11/11 09:12:43;;;;;;;;;;;;;;;19.66;48.04;102496.56;5031853;28;19917;-89
2021/11/11 09:15:10;;;;;;;;;;;;;;;19.44;47.91;102500.56;5041473;28;19916;-86
2021/11/11 09:17:36;;;;;;;;;;;;;;;19.77;47.73;102505.03;5028499;28;19921;-89
2021/11/11 09:20:02;;;;;;;;;;;;;;;19.86;47.43;102502.75;5032774;28;20327;-87
2021/11/11 09:22:28;;;;;;;;;;;;;;;19.21;48.57;102498.28;5026939;28;19928;-87
2021/11/11 09:24:53;;;;;;;;;;;;;;;19.72;47.69;102501.69;5033607;28;19917;-87
2021/11/11 09:27:19;;;;;;;;;;;;;;;18.29;51.03;102496.94;5027040;28;19948;-84
2021/11/11 09:29:45;;;;;;;;;;;;;;;19.22;49.08;102506.44;5036624;28;19918;-88
2021/11/11 09:32:10;;;;;;;;;;;;;;;19.20;49.38;102510.22;5036382;28;19918;-87
2021/11/11 09:34:35;;;;;;;;;;;;;;;18.68;51.06;102514.91;5021675;28;19986;-92
2021/11/11 09:37:01;;;;;;;;;;;;;;;19.19;49.17;102520.31;5036082;28;20024;-88
2021/11/11 09:39:26;;;;;;;;;;;;;;;18.97;50.05;102515.16;5036813;28;19924;-87
2021/11/11 09:41:56;;;;;;;;;;;;;;;18.79;50.53;102511.56;5021688;28;19968;-88
2021/11/11 09:44:25;;;;;;;;;;;;;;;18.48;51.35;102506.88;5036336;28;19933;-88
2021/11/11 09:46:51;;;;;;;;;;;;;;;18.87;49.97;102506.59;5035722;28;19988;-91
2021/11/11 09:49:16;;;;;;;;;;;;;;;19.39;48.90;102507.31;5037402;28;19972;-89
2021/11/11 09:51:42;;;;;;;;;;;;;;;18.84;50.62;102514.06;5036548;28;19960;-88
2021/11/11 09:58:34;;;;;;;;;;;;;;;20.06;47.46;102509.75;5036936;28;19917;-91
2021/11/11 09:59:40;;;;;;;;;;;;;;;18.69;50.63;102511.22;5013219;28;19924;-89
2021/11/11 10:02:06;;;;;;;;;;;;;;;18.46;50.79;102512.44;5020010;28;19922;-89
2021/11/11 10:04:32;;;;;;;;;;;;;;;19.21;49.50;102509.25;5012381;28;19949;-90
2021/11/11 10:06:58;;;;;;;;;;;;;;;18.58;50.14;102509.06;5034652;28;19921;-88
2021/11/11 10:09:24;;;;;;;;;;;;;;;17.74;52.94;102517.13;5036597;28;19918;-89
2021/11/11 10:11:52;;;;;;;;;;;;;;;17.95;53.19;102515.19;5036834;28;19918;-89
2021/11/11 10:14:37;;;;;;;;;;;;;;;19.26;49.75;102512.63;5037259;28;19921;-90
2021/11/11 10:17:04;;;;;;;;;;;;;;;18.49;51.63;102519.63;5036471;28;20366;-91
2021/11/11 10:19:30;;;;;;;;;;;;;;;18.18;52.27;102518.56;5038815;28;19906;-89
2021/11/11 10:22:16;;;;;;;;;;;;;;;18.90;50.32;102513.75;5037724;28;19921;-90
2021/11/11 10:24:49;;;;;;;;;;;;;;;18.81;50.92;102515.13;5036200;28;19922;-90
2021/11/11 10:27:27;;;;;;;;;;;;;;;18.99;50.13;102517.81;5019762;28;19984;-91
2021/11/11 10:30:03;;;;;;;;;;;;;;;18.00;52.72;102520.41;5036198;28;19956;-92
2021/11/11 10:32:34;;;;;;;;;;;;;;;18.21;51.90;102522.00;5021110;28;19918;-91
2021/11/11 10:35:02;;;;;;;;;;;;;;;18.17;52.25;102519.50;5021080;28;19985;-90
2021/11/11 10:37:32;;;;;;;;;;;;;;;18.34;52.18;102526.81;5036552;28;19917;-90
2021/11/11 10:40:00;;;;;;;;;;;;;;;18.20;52.89;102525.69;5037019;28;19921;-91
2021/11/11 10:42:26;;;;;;;;;;;;;;;18.60;51.60;102508.97;5036545;28;19923;-91
2021/11/11 10:44:53;;;;;;;;;;;;;;;18.03;52.62;102512.03;5037971;28;20398;-89
2021/11/11 10:47:23;;;;;;;;;;;;;;;18.15;52.82;102505.91;5037094;28;19989;-90
2021/11/11 10:49:49;;;;;;;;;;;;;;;18.41;52.05;102504.47;5036143;28;20437;-91
2021/11/11 10:52:20;;;;;;;;;;;;;;;18.18;52.93;102511.22;5036251;28;19917;-90
2021/11/11 10:55:15;;;;;;;;;;;;;;;18.94;50.83;102504.38;5037056;28;19902;-90
2021/11/11 10:57:40;;;;;;;;;;;;;;;19.61;49.02;102498.66;5037152;28;20533;-91
2021/11/11 11:00:05;;;;;;;;;;;;;;;18.47;51.59;102508.75;5019373;28;19928;-89
2021/11/11 11:02:47;;;;;;;;;;;;;;;18.59;51.25;102504.47;5021950;28;19918;-90
2021/11/11 11:05:12;;;;;;;;;;;;;;;18.48;51.81;102512.38;5037227;28;20418;-90
2021/11/11 11:07:37;;;;;;;;;;;;;;;19.18;50.20;102501.22;5036175;28;19917;-90
2021/11/11 11:10:04;;;;;;;;;;;;;;;19.31;50.30;102505.00;5036136;28;20374;-90
2021/11/11 11:12:30;;;;;;;;;;;;;;;19.90;48.10;102509.78;5025090;28;20000;-86
2021/11/11 11:14:56;;;;;;;;;;;;;;;20.09;47.50;102515.94;5016397;28;20379;-86
2021/11/11 11:17:21;;;;;;;;;;;;;;;20.50;46.43;102515.25;5032848;28;20019;-86
2021/11/11 11:19:47;;;;;;;;;;;;;;;20.55;46.45;102512.19;5034040;28;20378;-90
2021/11/11 11:22:20;;;;;;;;;;;;;;;20.44;46.46;102507.38;5036278;28;19917;-90
2021/11/11 11:24:46;;;;;;;;;;;;;;;19.46;48.97;102506.84;5020855;28;19924;-90
2021/11/11 11:27:12;;;;;;;;;;;;;;;19.71;48.46;102502.63;5037852;28;19922;-90
2021/11/11 11:32:34;;;;;;;;;;;;;;;19.88;47.87;102496.16;5021443;28;19901;-90
2021/11/11 11:35:01;;;;;;;;;;;;;;;20.07;47.56;102504.16;5036675;28;19940;-89
2021/11/11 11:37:30;;;;;;;;;;;;;;;20.44;46.68;102503.72;5037053;28;19940;-90
2021/11/11 11:40:01;;;;;;;;;;;;;;;19.81;48.02;102501.16;5036621;28;19917;-90
2021/11/11 11:42:30;;;;;;;;;;;;;;;19.68;48.66;102508.31;5034919;28;19971;-89
2021/11/11 11:45:15;;;;;;;;;;;;;;;19.48;48.73;102504.03;5018133;28;19971;-89
2021/11/11 11:47:43;;;;;;;;;;;;;;;19.77;48.75;102505.03;5017487;28;19921;-87
2021/11/11 11:50:23;;;;;;;;;;;;;;;19.80;47.91;102495.75;5015464;28;19917;-86
2021/11/11 11:52:52;;;;;;;;;;;;;;;18.94;50.00;102496.16;5016138;28;19944;-89
2021/11/11 12:00:54;;;;;;;;;;;;;;;19.41;48.81;102481.53;5017994;28;19940;-86
2021/11/11 12:03:44;;;;;;;;;;;;;;;18.64;51.14;102485.88;5014977;28;19963;-87
2021/11/11 12:12:08;;;;;;;;;;;;;;;18.97;50.04;102476.78;5015038;28;19940;-85
2021/11/11 12:39:38;;;;;;;;;;;;;;;18.81;50.78;102459.38;5019245;28;19925;-88
2021/11/11 12:42:06;;;;;;;;;;;;;;;19.30;49.26;102464.81;5033899;28;19917;-88
2021/11/11 12:44:31;;;;;;;;;;;;;;;19.85;47.82;102466.13;5016809;28;19937;-91
2021/11/11 12:46:58;;;;;;;;;;;;;;;18.42;51.50;102467.03;5017556;28;19905;-89
2021/11/11 12:49:24;;;;;;;;;;;;;;;18.70;50.38;102460.88;5017077;28;19951;-89
2021/11/11 12:52:15;;;;;;;;;;;;;;;19.52;48.52;102461.69;5032788;28;19918;-89
2021/11/11 12:54:41;;;;;;;;;;;;;;;18.92;50.01;102459.72;5017161;28;20000;-87
2021/11/11 12:57:07;;;;;;;;;;;;;;;18.67;50.37;102451.94;5014854;28;19924;-90
2021/11/11 12:59:34;;;;;;;;;;;;;;;18.64;50.19;102452.13;5016408;28;19917;-90
2021/11/11 13:02:05;;;;;;;;;;;;;;;18.73;50.05;102459.81;5018517;28;19918;-89
2021/11/11 13:04:42;;;;;;;;;;;;;;;18.98;49.30;102448.38;5020931;28;19918;-89
2021/11/11 13:07:20;;;;;;;;;;;;;;;18.60;50.78;102460.50;5020493;28;19976;-89
2021/11/11 13:09:57;;;;;;;;;;;;;;;19.04;49.20;102450.75;5022650;28;19933;-88
2021/11/11 13:12:26;;;;;;;;;;;;;;;19.93;47.22;102455.56;5020538;28;20420;-90
2021/11/11 13:14:59;;;;;;;;;;;;;;;18.93;49.05;102453.22;5019877;28;19932;-91
2021/11/11 13:17:58;;;;;;;;;;;;;;;18.80;49.90;102452.16;5021724;28;19917;-89
2021/11/11 13:20:40;;;;;;;;;;;;;;;18.22;51.40;102454.41;5019339;28;19922;-88
2021/11/11 13:23:26;;;;;;;;;;;;;;;19.31;48.81;102452.88;5035938;28;19921;-88
2021/11/11 15:57:32;;;;;;;;;;;;;;;20.33;46.87;102416.44;5014242;28;20119;-90
2021/11/11 16:26:50;;;;;;;;;;;;;;;20.48;46.73;102398.97;5021618;28;19941;-92
2021/11/11 16:29:16;;;;;;;;;;;;;;;20.52;46.92;102403.28;5020270;28;19920;-89
2021/11/11 16:31:41;;;;;;;;;;;;;;;19.71;49.12;102403.78;5023787;28;19918;-90
2021/11/11 16:34:06;;;;;;;;;;;;;;;20.03;48.55;102403.66;5019940;28;19917;-89
2021/11/11 16:36:33;;;;;;;;;;;;;;;20.35;47.47;102395.22;5023469;28;19924;-93
2021/11/11 16:38:58;;;;;;;;;;;;;;;20.04;47.86;102397.22;5024442;28;19979;-90